createdAt,value
2019-04-22T00:00:34.584Z,163.75
2019-04-22T00:03:03.058Z,159.80
2019-04-22T00:05:53.176Z,162.57
2019-04-22T00:08:16.859Z,159.60
2019-04-22T00:10:54.021Z,159.78
2019-04-22T00:13:27.614Z,160.35
2019-04-22T00:15:41.806Z,158.10
2019-04-22T00:18:22.276Z,159.63
2019-04-22T00:20:54.438Z,158.97
2019-04-22T00:23:12.842Z,159.55
2019-04-22T00:25:48.318Z,160.05
2019-04-22T00:28:14.626Z,160.70
2019-04-22T00:30:44.915Z,158.52
2019-04-22T00:33:24.931Z,159.20
2019-04-22T00:35:54.544Z,158.00
2019-04-22T00:38:23.445Z,158.70
2019-04-22T00:40:53.370Z,157.80
2019-04-22T00:43:24.329Z,158.00
2019-04-22T00:45:49.208Z,157.72
2019-04-22T00:51:01.627Z,158.27
2019-04-22T00:53:31.303Z,158.03
2019-04-22T00:56:05.549Z,159.07
2019-04-22T00:58:31.194Z,157.25
2019-04-22T01:01:06.269Z,159.57
2019-04-22T01:03:37.025Z,158.12
2019-04-22T01:06:03.488Z,158.22
2019-04-22T01:08:43.187Z,160.35
2019-04-22T01:11:03.242Z,158.50
2019-04-22T01:13:34.363Z,158.22
2019-04-22T01:16:09.334Z,157.70
2019-04-22T01:18:29.843Z,156.15
2019-04-22T01:23:28.200Z,157.60
2019-04-22T01:25:55.272Z,159.67
2019-04-22T01:28:23.816Z,159.48
2019-04-22T01:30:46.902Z,159.40
2019-04-22T01:33:16.315Z,157.70
2019-04-22T01:35:58.240Z,158.47
2019-04-22T01:38:23.627Z,156.72
2019-04-22T01:41:07.236Z,158.78
2019-04-22T01:43:42.126Z,156.57
2019-04-22T01:46:02.612Z,158.03
2019-04-22T01:48:36.608Z,155.60
2019-04-22T01:50:54.755Z,156.20
2019-04-22T01:53:36.439Z,159.25
2019-04-22T01:55:59.818Z,157.70
2019-04-22T01:58:24.878Z,156.50
2019-04-22T02:01:13.594Z,158.52
2019-04-22T02:03:25.722Z,157.50
2019-04-22T02:05:59.237Z,157.82
2019-04-22T02:08:31.446Z,159.27
2019-04-22T02:10:54.860Z,160.75
2019-04-22T02:13:23.819Z,157.95
2019-04-22T02:15:52.513Z,156.02
2019-04-22T02:18:23.000Z,157.97
2019-04-22T02:20:50.331Z,157.70
2019-04-22T02:28:42.542Z,158.07
2019-04-22T02:41:21.385Z,157.97
2019-04-22T02:43:43.979Z,159.32
2019-04-22T02:46:16.603Z,156.43
2019-04-22T02:48:45.946Z,156.82
2019-04-22T02:51:06.176Z,156.70
2019-04-22T02:53:59.327Z,157.52
2019-04-22T02:56:04.938Z,157.07
2019-04-22T02:58:41.170Z,156.93
2019-04-22T03:01:06.011Z,156.85
2019-04-22T03:03:45.850Z,155.35
2019-04-22T03:06:19.333Z,156.67
2019-04-22T03:08:23.962Z,156.85
2019-04-22T03:13:32.447Z,155.97
2019-04-22T03:16:01.142Z,156.82
2019-04-22T03:18:35.845Z,159.20
2019-04-22T03:21:00.115Z,156.12
2019-04-22T03:23:42.864Z,157.78
2019-04-22T03:28:30.985Z,157.55
2019-04-22T03:32:16.728Z,155.60
2019-04-22T03:42:00.584Z,155.35
2019-04-22T03:44:26.129Z,153.90
2019-04-22T03:46:53.362Z,155.78
2019-04-22T03:49:29.056Z,156.55
2019-04-22T03:51:56.732Z,155.10
2019-04-22T03:54:35.828Z,155.50
2019-04-22T03:57:18.376Z,155.93
2019-04-22T03:59:28.663Z,155.18
2019-04-22T04:04:15.462Z,155.67
2019-04-22T04:06:50.188Z,155.05
2019-04-22T04:09:16.872Z,153.35
2019-04-22T04:11:55.816Z,156.52
2019-04-22T04:14:27.028Z,157.78
2019-04-22T04:16:50.447Z,155.67
2019-04-22T04:19:13.828Z,158.37
2019-04-22T04:21:41.383Z,156.10
2019-04-22T04:24:29.125Z,153.82
2019-04-22T04:41:52.115Z,153.87
2019-04-22T04:44:15.182Z,154.42
2019-04-22T04:46:47.339Z,154.75
2019-04-22T04:54:23.423Z,157.80
2019-04-22T04:56:40.367Z,156.47
2019-04-22T04:59:17.301Z,158.95
2019-04-22T05:01:35.170Z,157.05
2019-04-22T05:16:54.661Z,157.35
2019-04-22T05:22:05.142Z,157.62
2019-04-22T05:24:36.680Z,157.70
2019-04-22T05:27:15.059Z,158.27
2019-04-22T05:29:54.196Z,156.45
2019-04-22T05:32:01.458Z,157.43
2019-04-22T05:34:35.078Z,157.70
2019-04-22T05:37:00.949Z,158.32
2019-04-22T05:39:31.075Z,158.97
2019-04-22T05:42:03.671Z,159.12
2019-04-22T05:44:29.559Z,160.63
2019-04-22T05:46:52.815Z,160.43
2019-04-22T05:51:55.444Z,160.35
2019-04-22T05:54:27.638Z,159.18
2019-04-22T05:56:47.186Z,158.57
2019-04-22T05:59:25.002Z,158.95
2019-04-22T06:02:00.735Z,159.70
2019-04-22T06:04:25.685Z,159.05
2019-04-22T06:06:51.788Z,159.10
2019-04-22T06:09:27.469Z,157.72
2019-04-22T06:11:47.670Z,158.75
2019-04-22T06:14:20.437Z,159.75
2019-04-22T06:16:59.143Z,159.37
2019-04-22T06:19:38.536Z,159.45
2019-04-22T06:22:16.951Z,159.72
2019-04-22T06:24:27.868Z,162.80
2019-04-22T06:27:02.325Z,161.57
2019-04-22T06:29:19.597Z,160.65
2019-04-22T06:32:10.222Z,164.00
2019-04-22T06:34:22.375Z,160.22
2019-04-22T06:36:53.882Z,161.85
2019-04-22T06:39:21.179Z,161.45
2019-04-22T06:41:47.660Z,163.30
2019-04-22T06:44:22.727Z,161.12
2019-04-22T06:46:47.699Z,162.57
2019-04-22T06:49:18.726Z,164.10
2019-04-22T06:51:46.807Z,164.70
2019-04-22T06:54:14.367Z,164.28
2019-04-22T06:56:42.737Z,164.77
2019-04-22T06:59:14.835Z,162.75
2019-04-22T07:01:45.829Z,164.25
2019-04-22T07:04:25.103Z,163.82
2019-04-22T07:06:43.738Z,162.92
2019-04-22T07:11:43.330Z,164.67
2019-04-22T07:14:09.384Z,165.10
2019-04-22T07:16:43.278Z,164.62
2019-04-22T07:19:13.867Z,165.30
2019-04-22T07:21:44.093Z,165.40
2019-04-22T07:24:28.217Z,165.68
2019-04-22T07:26:44.856Z,164.77
2019-04-22T07:29:12.119Z,164.52
2019-04-22T07:31:44.663Z,164.57
2019-04-22T07:42:10.448Z,164.10
2019-04-22T07:44:45.073Z,165.07
2019-04-22T07:52:10.026Z,165.35
2019-04-22T07:54:49.296Z,164.37
2019-04-22T07:59:50.077Z,164.93
2019-04-22T08:02:31.797Z,166.68
2019-04-22T08:05:07.317Z,167.72
2019-04-22T08:07:30.189Z,165.73
2019-04-22T08:12:28.153Z,166.12
2019-04-22T08:14:53.801Z,168.22
2019-04-22T08:19:57.413Z,166.32
2019-04-22T08:22:25.902Z,165.70
2019-04-22T08:27:22.472Z,166.03
2019-04-22T08:30:09.448Z,165.60
2019-04-22T08:32:27.976Z,166.55
2019-04-22T08:34:56.466Z,164.90
2019-04-22T08:39:55.063Z,165.22
2019-04-22T08:42:35.433Z,166.65
2019-04-22T08:47:31.114Z,167.10
2019-04-22T08:50:04.656Z,167.60
2019-04-22T08:52:20.780Z,168.32
2019-04-22T08:54:55.399Z,167.72
2019-04-22T08:57:26.020Z,170.68
2019-04-22T08:59:50.126Z,169.50
2019-04-22T09:02:25.966Z,168.95
2019-04-22T09:04:53.418Z,165.52
2019-04-22T09:07:30.259Z,169.20
2019-04-22T09:09:53.957Z,167.32
2019-04-22T09:14:55.345Z,168.13
2019-04-22T09:17:36.258Z,167.30
2019-04-22T09:20:11.323Z,167.28
2019-04-22T09:22:36.278Z,167.68
2019-04-22T09:25:06.724Z,165.73
2019-04-22T09:27:48.388Z,167.15
2019-04-22T09:30:21.787Z,165.77
2019-04-22T09:32:56.293Z,167.75
2019-04-22T09:35:15.873Z,167.82
2019-04-22T09:37:50.399Z,167.03
2019-04-22T09:40:18.392Z,167.18
2019-04-22T09:42:50.441Z,167.55
2019-04-22T09:45:43.643Z,167.45
2019-04-22T09:48:16.701Z,170.43
2019-04-22T09:50:43.142Z,170.15
2019-04-22T09:53:08.446Z,167.93
2019-04-22T09:55:37.472Z,168.13
2019-04-22T09:58:09.512Z,169.05
2019-04-22T10:00:43.004Z,171.25
2019-04-22T10:03:20.563Z,169.85
2019-04-22T10:05:48.073Z,169.32
2019-04-22T10:08:18.739Z,171.18
2019-04-22T10:10:49.001Z,171.93
2019-04-22T10:13:12.407Z,166.73
2019-04-22T10:15:33.694Z,168.52
2019-04-22T10:18:04.138Z,167.50
2019-04-22T10:20:32.772Z,167.40
2019-04-22T10:23:05.444Z,167.65
2019-04-22T10:25:36.015Z,168.75
2019-04-22T10:28:08.764Z,168.60
2019-04-22T10:30:41.751Z,169.25
2019-04-22T10:33:03.059Z,169.87
2019-04-22T10:35:15.509Z,170.00
2019-04-22T10:37:40.580Z,172.45
2019-04-22T10:40:13.662Z,171.15
2019-04-22T10:42:43.133Z,170.75
2019-04-22T10:45:12.389Z,170.53
2019-04-22T10:47:40.374Z,171.25
2019-04-22T10:50:10.100Z,168.50
2019-04-22T10:52:37.381Z,169.65
2019-04-22T10:55:05.856Z,172.80
2019-04-22T10:57:33.891Z,175.10
2019-04-22T11:00:01.017Z,170.38
2019-04-22T11:02:29.780Z,171.95
2019-04-22T11:04:59.351Z,173.62
2019-04-22T11:07:36.195Z,172.70
2019-04-22T11:10:09.819Z,171.77
2019-04-22T11:12:29.520Z,172.10
2019-04-22T11:14:55.787Z,170.85
2019-04-22T11:17:24.212Z,170.68
2019-04-22T11:19:53.338Z,172.15
2019-04-22T11:22:24.488Z,172.25
2019-04-22T11:24:50.800Z,170.85
2019-04-22T11:27:18.915Z,171.70
2019-04-22T11:29:47.952Z,171.98
2019-04-22T11:32:16.115Z,169.97
2019-04-22T11:34:43.239Z,169.17
2019-04-22T11:37:10.540Z,169.75
2019-04-22T11:39:38.679Z,168.05
2019-04-22T11:42:05.871Z,169.93
2019-04-22T11:44:35.309Z,167.65
2019-04-22T11:47:09.532Z,169.43
2019-04-22T11:49:36.719Z,170.87
2019-04-22T11:52:06.586Z,168.15
2019-04-22T11:54:35.138Z,171.60
2019-04-22T11:57:12.860Z,172.17
2019-04-22T11:59:40.751Z,170.87
2019-04-22T12:02:09.004Z,171.53
2019-04-22T12:04:38.182Z,172.13
2019-04-22T12:07:05.890Z,172.93
2019-04-22T12:09:33.755Z,171.60
2019-04-22T12:12:00.930Z,168.62
2019-04-22T12:14:28.010Z,169.65
2019-04-22T12:16:55.408Z,173.35
2019-04-22T12:19:27.392Z,172.87
2019-04-22T12:21:55.172Z,172.72
2019-04-22T12:24:23.281Z,170.70
2019-04-22T12:26:52.743Z,169.65
2019-04-22T12:29:22.744Z,169.72
2019-04-22T12:31:51.423Z,168.62
2019-04-22T12:34:19.649Z,172.10
2019-04-22T12:36:48.751Z,168.05
2019-04-22T12:39:17.710Z,172.30
2019-04-22T12:41:46.459Z,175.57
2019-04-22T12:44:14.995Z,168.62
2019-04-22T12:46:48.103Z,175.32
2019-04-22T12:49:18.178Z,170.05
2019-04-22T12:51:47.383Z,169.70
2019-04-22T12:54:17.188Z,169.55
2019-04-22T12:56:48.068Z,172.55
2019-04-22T12:59:17.579Z,171.90
2019-04-22T13:01:47.265Z,170.62
2019-04-22T13:04:19.502Z,170.53
2019-04-22T13:06:46.096Z,173.60
2019-04-22T13:09:14.550Z,170.45
2019-04-22T13:11:44.577Z,174.53
2019-04-22T13:14:12.781Z,172.75
2019-04-22T13:16:40.868Z,170.15
2019-04-22T13:19:12.831Z,171.95
2019-04-22T13:21:38.525Z,168.97
2019-04-22T13:24:07.092Z,170.50
2019-04-22T13:26:35.867Z,172.10
2019-04-22T13:29:03.355Z,171.53
2019-04-22T13:31:30.975Z,171.95
2019-04-22T13:34:13.267Z,170.72
2019-04-22T13:36:40.082Z,171.28
2019-04-22T13:39:08.945Z,170.07
2019-04-22T13:41:46.328Z,172.47
2019-04-22T13:44:07.071Z,168.20
2019-04-22T13:46:35.591Z,168.68
2019-04-22T13:49:38.266Z,171.30
2019-04-22T13:52:15.260Z,170.45
2019-04-22T13:56:51.856Z,168.57
2019-04-22T13:59:15.100Z,168.55
2019-04-22T14:02:00.818Z,170.43
2019-04-22T14:04:32.655Z,169.45
2019-04-22T14:07:00.845Z,170.70
2019-04-22T14:09:33.910Z,170.85
2019-04-22T14:12:07.360Z,170.38
2019-04-22T14:14:39.321Z,167.93
2019-04-22T14:17:09.021Z,170.92
2019-04-22T14:19:39.202Z,170.30
2019-04-22T14:22:09.604Z,171.95
2019-04-22T14:24:40.499Z,168.02
2019-04-22T14:27:22.365Z,166.77
2019-04-22T14:29:39.805Z,166.82
2019-04-22T14:34:39.007Z,168.37
2019-04-22T14:37:14.130Z,171.87
2019-04-22T14:39:41.980Z,167.95
2019-04-22T14:42:28.278Z,167.85
2019-04-22T14:44:03.823Z,170.87
2019-04-22T14:47:34.610Z,168.43
2019-04-22T14:50:07.998Z,169.53
2019-04-22T14:52:33.305Z,171.02
2019-04-22T14:54:53.078Z,170.17
2019-04-22T14:57:12.964Z,169.25
2019-04-22T14:59:46.189Z,169.22
2019-04-22T15:02:14.073Z,167.65
2019-04-22T15:04:41.572Z,170.30
2019-04-22T15:07:16.924Z,171.25
2019-04-22T15:09:46.231Z,169.85
2019-04-22T15:12:20.549Z,169.85
2019-04-22T15:14:43.610Z,169.93
2019-04-22T15:17:33.391Z,171.13
2019-04-22T15:20:16.049Z,169.87
2019-04-22T15:22:44.321Z,170.77
2019-04-22T15:25:42.049Z,172.17
2019-04-22T15:28:19.601Z,170.60
2019-04-22T15:30:51.171Z,170.12
2019-04-22T15:33:19.413Z,171.18
2019-04-22T15:35:47.237Z,169.93
2019-04-22T15:38:17.744Z,167.03
2019-04-22T15:40:46.949Z,169.05
2019-04-22T15:43:14.970Z,167.35
2019-04-22T15:45:44.186Z,165.57
2019-04-22T15:48:14.806Z,168.07
2019-04-22T15:50:42.549Z,168.32
2019-04-22T15:53:11.733Z,166.18
2019-04-22T15:55:39.025Z,166.37
2019-04-22T15:58:07.959Z,166.07
2019-04-22T16:00:51.046Z,166.90
2019-04-22T16:03:08.381Z,166.73
2019-04-22T16:05:34.180Z,167.35
2019-04-22T16:08:03.565Z,165.30
2019-04-22T16:10:31.212Z,168.07
2019-04-22T16:13:07.459Z,167.05
2019-04-22T16:15:28.797Z,167.90
2019-04-22T16:17:56.054Z,168.80
2019-04-22T16:20:23.328Z,167.28
2019-04-22T16:23:09.610Z,166.57
2019-04-22T16:26:03.451Z,166.25
2019-04-22T16:28:31.373Z,165.80
2019-04-22T16:30:59.700Z,165.28
2019-04-22T16:33:27.747Z,167.93
2019-04-22T16:35:55.098Z,169.87
2019-04-22T16:38:24.599Z,167.47
2019-04-22T16:40:52.731Z,165.80
2019-04-22T16:43:20.443Z,166.22
2019-04-22T16:45:50.034Z,168.10
2019-04-22T16:48:19.857Z,167.40
2019-04-22T16:50:50.645Z,166.65
2019-04-22T16:53:20.678Z,166.62
2019-04-22T16:55:50.809Z,170.07
2019-04-22T16:58:18.916Z,166.10
2019-04-22T17:00:49.629Z,165.20
2019-04-22T17:03:52.408Z,166.10
2019-04-22T17:06:29.923Z,167.15
2019-04-22T17:08:57.343Z,168.72
2019-04-22T17:11:27.531Z,168.15
2019-04-22T17:13:55.164Z,165.57
2019-04-22T17:16:24.194Z,168.52
2019-04-22T17:18:54.217Z,168.57
2019-04-22T17:21:21.803Z,167.60
2019-04-22T17:23:49.865Z,168.10
2019-04-22T17:26:18.721Z,166.62
2019-04-22T17:28:46.290Z,167.25
2019-04-22T17:31:13.670Z,167.03
2019-04-22T17:33:41.197Z,166.25
2019-04-22T17:36:09.328Z,165.77
2019-04-22T17:38:48.947Z,163.92
2019-04-22T17:41:20.731Z,164.95
2019-04-22T17:43:58.865Z,163.03
2019-04-22T17:46:32.290Z,163.52
2019-04-22T17:49:16.704Z,162.95
2019-04-22T17:52:06.166Z,163.82
2019-04-22T17:54:34.436Z,164.20
2019-04-22T17:57:02.099Z,165.80
2019-04-22T17:59:35.951Z,164.37
2019-04-22T18:01:59.645Z,163.52
2019-04-22T18:04:12.742Z,165.25
2019-04-22T18:07:02.912Z,166.18
2019-04-22T18:09:53.714Z,165.03
2019-04-22T18:12:04.870Z,165.28
2019-04-22T18:14:41.696Z,165.05
2019-04-22T18:17:05.796Z,162.27
2019-04-22T18:19:29.471Z,162.65
2019-04-22T18:21:51.625Z,162.40
2019-04-22T18:24:19.981Z,163.55
2019-04-22T18:27:18.953Z,165.75
2019-04-22T18:29:28.093Z,163.55
2019-04-22T18:31:51.175Z,163.32
2019-04-22T18:34:25.537Z,163.82
2019-04-22T18:37:07.712Z,162.40
2019-04-22T18:39:42.520Z,162.90
2019-04-22T18:42:05.920Z,163.32
2019-04-22T18:44:39.849Z,162.50
2019-04-22T18:47:07.351Z,161.35
2019-04-22T18:49:37.352Z,161.55
2019-04-22T18:52:38.000Z,164.05
2019-04-22T18:55:17.933Z,161.03
2019-04-22T18:58:16.615Z,161.97
2019-04-22T19:00:36.230Z,162.30
2019-04-22T19:03:13.512Z,162.12
2019-04-22T19:06:02.601Z,160.67
2019-04-22T19:08:28.826Z,163.25
2019-04-22T19:11:02.602Z,162.70
2019-04-22T19:16:09.752Z,162.65
2019-04-22T19:18:37.921Z,162.15
2019-04-22T19:21:02.801Z,162.53
2019-04-22T19:23:28.486Z,162.43
2019-04-22T19:25:59.096Z,163.80
2019-04-22T19:28:42.569Z,161.90
2019-04-22T19:31:13.515Z,161.70
2019-04-22T19:33:40.679Z,163.10
2019-04-22T19:36:10.756Z,165.88
2019-04-22T19:38:30.036Z,161.57
2019-04-22T19:41:19.761Z,162.57
2019-04-22T19:43:46.497Z,160.82
2019-04-22T19:46:13.022Z,161.57
2019-04-22T19:48:45.498Z,160.93
2019-04-22T19:51:24.249Z,163.47
2019-04-22T19:53:47.399Z,163.55
2019-04-22T19:56:11.552Z,160.85
2019-04-22T19:58:42.645Z,164.22
2019-04-22T20:01:44.108Z,162.97
2019-04-22T20:04:32.641Z,161.77
2019-04-22T20:07:05.144Z,160.12
2019-04-22T20:09:35.447Z,161.43
2019-04-22T20:12:04.534Z,163.87
2019-04-22T20:14:34.991Z,161.28
2019-04-22T20:17:02.445Z,162.75
2019-04-22T20:19:41.470Z,162.82
2019-04-22T20:22:03.000Z,160.97
2019-04-22T20:24:23.840Z,161.07
2019-04-22T20:27:12.378Z,160.22
2019-04-22T20:29:37.670Z,161.05
2019-04-22T20:32:05.700Z,161.90
2019-04-22T20:34:37.973Z,162.57
2019-04-22T20:37:10.449Z,160.45
2019-04-22T20:39:40.951Z,163.35
2019-04-22T20:42:21.305Z,160.50
2019-04-22T20:44:33.517Z,163.82
2019-04-22T20:46:55.758Z,161.15
2019-04-22T20:49:31.063Z,161.25
2019-04-22T20:52:21.634Z,161.20
2019-04-22T20:54:32.644Z,160.32
2019-04-22T20:56:57.721Z,159.48
2019-04-22T20:59:28.861Z,159.90
2019-04-22T21:01:57.974Z,159.12
2019-04-22T21:04:33.535Z,160.07
2019-04-22T21:07:05.100Z,158.97
2019-04-22T21:09:38.294Z,159.78
2019-04-22T21:12:05.133Z,161.95
2019-04-22T21:14:32.458Z,158.55
2019-04-22T21:17:08.041Z,159.00
2019-04-22T21:19:49.739Z,159.43
2019-04-22T21:22:07.952Z,158.63
2019-04-22T21:24:34.995Z,159.70
2019-04-22T21:27:10.319Z,158.27
2019-04-22T21:29:32.149Z,159.03
2019-04-22T21:32:01.094Z,160.28
2019-04-22T21:34:41.391Z,158.70
2019-04-22T21:37:07.635Z,158.70
2019-04-22T21:39:29.024Z,159.15
2019-04-22T21:42:03.380Z,159.55
2019-04-22T21:44:26.149Z,162.25
2019-04-22T21:47:04.426Z,159.12
2019-04-22T21:49:29.620Z,158.47
2019-04-22T21:52:13.490Z,159.60
2019-04-22T21:54:28.273Z,158.30
2019-04-22T21:59:34.675Z,158.12
2019-04-22T22:02:12.375Z,156.55
2019-04-22T22:04:36.363Z,156.93
2019-04-22T22:06:58.932Z,158.07
2019-04-22T22:09:39.941Z,156.95
2019-04-22T22:12:02.441Z,158.60
2019-04-22T22:14:34.844Z,158.65
2019-04-22T22:16:56.110Z,156.80
2019-04-22T22:19:35.946Z,158.10
2019-04-22T22:22:07.849Z,157.00
2019-04-22T22:24:41.586Z,157.45
2019-04-22T22:27:01.441Z,158.70
2019-04-22T22:29:48.054Z,157.67
2019-04-22T22:32:07.932Z,157.05
2019-04-22T22:34:28.061Z,157.12
2019-04-22T22:36:54.404Z,157.27
2019-04-22T22:39:23.692Z,156.90
2019-04-22T22:41:39.731Z,158.45
2019-04-22T22:44:16.398Z,157.07
2019-04-22T22:46:51.494Z,158.12
2019-04-22T22:49:29.902Z,159.30
2019-04-22T22:52:09.780Z,161.00
2019-04-22T22:54:33.110Z,157.80
2019-04-22T22:57:01.974Z,158.57
2019-04-22T22:59:29.937Z,158.68
2019-04-22T23:01:52.626Z,157.80
2019-04-22T23:04:29.488Z,156.87
2019-04-22T23:06:58.248Z,156.82
2019-04-22T23:09:19.559Z,155.40
2019-04-22T23:12:03.307Z,155.63
2019-04-22T23:14:20.856Z,155.63
2019-04-22T23:16:39.785Z,155.80
2019-04-22T23:19:04.392Z,155.80
2019-04-22T23:21:38.816Z,155.93
2019-04-22T23:24:23.411Z,155.03
2019-04-22T23:27:03.221Z,156.20
2019-04-22T23:29:43.050Z,156.32
2019-04-22T23:32:18.540Z,157.82
2019-04-22T23:34:58.737Z,156.12
2019-04-22T23:37:29.016Z,157.93
2019-04-22T23:40:11.780Z,155.93
2019-04-22T23:42:41.768Z,156.57
2019-04-22T23:45:02.030Z,155.05
2019-04-22T23:47:30.060Z,155.35
2019-04-22T23:50:14.060Z,156.85
2019-04-22T23:52:49.003Z,155.03
2019-04-22T23:55:17.769Z,155.40
2019-04-22T23:57:46.974Z,154.32
